sensor_id;sensor_type;location;lat;lon;timestamp;temperature;humidity
69393;SHT31;56582;44.624;20.378;2023-07-29T00:00:41;22.10;63.92
69393;SHT31;56582;44.624;20.378;2023-07-29T00:03:06;22.13;63.73
69393;SHT31;56582;44.624;20.378;2023-07-29T00:05:32;22.12;63.59
69393;SHT31;56582;44.624;20.378;2023-07-29T00:07:57;22.13;63.47
69393;SHT31;56582;44.624;20.378;2023-07-29T00:10:23;22.15;63.49
69393;SHT31;56582;44.624;20.378;2023-07-29T00:12:48;22.05;63.70
69393;SHT31;56582;44.624;20.378;2023-07-29T00:15:14;22.04;63.88
69393;SHT31;56582;44.624;20.378;2023-07-29T00:17:39;22.05;63.71
69393;SHT31;56582;44.624;20.378;2023-07-29T00:20:06;21.99;63.74
69393;SHT31;56582;44.624;20.378;2023-07-29T00:22:32;22.02;63.67
69393;SHT31;56582;44.624;20.378;2023-07-29T00:24:57;21.99;63.93
69393;SHT31;56582;44.624;20.378;2023-07-29T00:27:24;22.05;63.69
69393;SHT31;56582;44.624;20.378;2023-07-29T00:29:50;22.04;63.72
69393;SHT31;56582;44.624;20.378;2023-07-29T00:32:16;21.95;64.15
69393;SHT31;56582;44.624;20.378;2023-07-29T00:34:41;21.84;64.52
69393;SHT31;56582;44.624;20.378;2023-07-29T00:37:07;21.78;64.55
69393;SHT31;56582;44.624;20.378;2023-07-29T00:39:33;21.82;64.35
69393;SHT31;56582;44.624;20.378;2023-07-29T00:41:59;21.81;64.42
69393;SHT31;56582;44.624;20.378;2023-07-29T00:44:24;21.87;64.28
69393;SHT31;56582;44.624;20.378;2023-07-29T00:46:52;21.89;64.19
69393;SHT31;56582;44.624;20.378;2023-07-29T00:49:19;21.88;64.30
69393;SHT31;56582;44.624;20.378;2023-07-29T00:51:45;21.88;64.28
69393;SHT31;56582;44.624;20.378;2023-07-29T00:54:11;21.95;63.91
69393;SHT31;56582;44.624;20.378;2023-07-29T00:56:36;22.01;63.82
69393;SHT31;56582;44.624;20.378;2023-07-29T00:59:03;21.98;63.88
69393;SHT31;56582;44.624;20.378;2023-07-29T01:01:30;21.94;63.69
69393;SHT31;56582;44.624;20.378;2023-07-29T01:03:56;21.99;63.63
69393;SHT31;56582;44.624;20.378;2023-07-29T01:12:58;21.98;63.74
69393;SHT31;56582;44.624;20.378;2023-07-29T01:15:44;22.02;63.51
69393;SHT31;56582;44.624;20.378;2023-07-29T01:18:37;21.87;63.69
69393;SHT31;56582;44.624;20.378;2023-07-29T01:21:04;21.81;63.51
69393;SHT31;56582;44.624;20.378;2023-07-29T01:23:33;21.88;63.38
69393;SHT31;56582;44.624;20.378;2023-07-29T01:25:59;21.89;63.18
69393;SHT31;56582;44.624;20.378;2023-07-29T01:28:25;21.81;63.46
69393;SHT31;56582;44.624;20.378;2023-07-29T01:30:57;21.77;63.75
69393;SHT31;56582;44.624;20.378;2023-07-29T01:33:26;21.87;63.51
69393;SHT31;56582;44.624;20.378;2023-07-29T01:35:57;21.73;63.51
69393;SHT31;56582;44.624;20.378;2023-07-29T01:38:43;21.62;63.48
69393;SHT31;56582;44.624;20.378;2023-07-29T01:41:09;21.73;63.69
69393;SHT31;56582;44.624;20.378;2023-07-29T01:43:36;21.81;63.24
69393;SHT31;56582;44.624;20.378;2023-07-29T01:46:12;21.82;62.75
69393;SHT31;56582;44.624;20.378;2023-07-29T01:48:38;21.89;63.11
69393;SHT31;56582;44.624;20.378;2023-07-29T01:51:04;21.87;62.98
69393;SHT31;56582;44.624;20.378;2023-07-29T01:53:30;21.88;62.85
69393;SHT31;56582;44.624;20.378;2023-07-29T01:55:55;21.85;62.84
69393;SHT31;56582;44.624;20.378;2023-07-29T01:58:22;21.79;62.78
69393;SHT31;56582;44.624;20.378;2023-07-29T02:00:47;21.82;62.66
69393;SHT31;56582;44.624;20.378;2023-07-29T02:03:13;21.92;62.68
69393;SHT31;56582;44.624;20.378;2023-07-29T02:05:39;21.74;63.47
69393;SHT31;56582;44.624;20.378;2023-07-29T02:08:04;21.67;64.03
69393;SHT31;56582;44.624;20.378;2023-07-29T02:10:30;21.60;64.13
69393;SHT31;56582;44.624;20.378;2023-07-29T02:12:55;21.71;63.99
69393;SHT31;56582;44.624;20.378;2023-07-29T02:15:20;21.71;63.68
69393;SHT31;56582;44.624;20.378;2023-07-29T02:17:46;21.65;63.91
69393;SHT31;56582;44.624;20.378;2023-07-29T02:20:11;21.68;63.93
69393;SHT31;56582;44.624;20.378;2023-07-29T02:22:37;21.68;64.14
69393;SHT31;56582;44.624;20.378;2023-07-29T02:25:03;21.57;64.41
69393;SHT31;56582;44.624;20.378;2023-07-29T02:27:28;21.60;64.78
69393;SHT31;56582;44.624;20.378;2023-07-29T02:29:54;21.58;64.62
69393;SHT31;56582;44.624;20.378;2023-07-29T02:32:20;21.58;64.65
69393;SHT31;56582;44.624;20.378;2023-07-29T02:34:46;21.54;65.11
69393;SHT31;56582;44.624;20.378;2023-07-29T02:37:11;21.39;65.50
69393;SHT31;56582;44.624;20.378;2023-07-29T02:39:37;21.34;65.73
69393;SHT31;56582;44.624;20.378;2023-07-29T02:42:03;21.40;65.25
69393;SHT31;56582;44.624;20.378;2023-07-29T02:44:28;21.20;65.90
69393;SHT31;56582;44.624;20.378;2023-07-29T02:46:54;21.16;66.02
69393;SHT31;56582;44.624;20.378;2023-07-29T02:49:21;21.16;66.08
69393;SHT31;56582;44.624;20.378;2023-07-29T02:51:47;21.11;66.51
69393;SHT31;56582;44.624;20.378;2023-07-29T02:54:12;20.99;66.56
69393;SHT31;56582;44.624;20.378;2023-07-29T02:56:37;20.96;66.66
69393;SHT31;56582;44.624;20.378;2023-07-29T02:59:03;21.02;66.40
69393;SHT31;56582;44.624;20.378;2023-07-29T03:01:29;21.03;66.69
69393;SHT31;56582;44.624;20.378;2023-07-29T03:03:54;21.03;66.73
69393;SHT31;56582;44.624;20.378;2023-07-29T03:06:20;21.06;65.56
69393;SHT31;56582;44.624;20.378;2023-07-29T03:08:45;21.19;64.36
69393;SHT31;56582;44.624;20.378;2023-07-29T03:11:14;21.34;64.39
69393;SHT31;56582;44.624;20.378;2023-07-29T03:13:39;21.51;63.81
69393;SHT31;56582;44.624;20.378;2023-07-29T03:18:35;21.85;63.35
69393;SHT31;56582;44.624;20.378;2023-07-29T03:21:01;21.97;63.23
69393;SHT31;56582;44.624;20.378;2023-07-29T03:23:28;22.09;63.07
69393;SHT31;56582;44.624;20.378;2023-07-29T03:25:55;22.16;63.13
69393;SHT31;56582;44.624;20.378;2023-07-29T03:28:33;22.26;63.43
69393;SHT31;56582;44.624;20.378;2023-07-29T03:30:58;22.33;63.71
69393;SHT31;56582;44.624;20.378;2023-07-29T03:33:25;22.37;63.49
69393;SHT31;56582;44.624;20.378;2023-07-29T03:35:51;22.43;63.66
69393;SHT31;56582;44.624;20.378;2023-07-29T03:38:17;22.53;63.84
69393;SHT31;56582;44.624;20.378;2023-07-29T03:40:43;22.57;64.26
69393;SHT31;56582;44.624;20.378;2023-07-29T03:43:09;22.59;64.18
69393;SHT31;56582;44.624;20.378;2023-07-29T03:45:35;22.56;64.13
69393;SHT31;56582;44.624;20.378;2023-07-29T03:48:01;22.61;64.03
69393;SHT31;56582;44.624;20.378;2023-07-29T03:50:28;22.63;63.96
69393;SHT31;56582;44.624;20.378;2023-07-29T03:52:54;22.64;63.89
69393;SHT31;56582;44.624;20.378;2023-07-29T03:55:20;22.66;63.90
69393;SHT31;56582;44.624;20.378;2023-07-29T03:57:46;22.66;64.03
69393;SHT31;56582;44.624;20.378;2023-07-29T04:00:11;22.70;64.18
69393;SHT31;56582;44.624;20.378;2023-07-29T04:02:37;22.76;64.23
69393;SHT31;56582;44.624;20.378;2023-07-29T04:05:06;22.77;64.16
69393;SHT31;56582;44.624;20.378;2023-07-29T04:07:37;22.80;64.25
69393;SHT31;56582;44.624;20.378;2023-07-29T04:10:03;22.83;64.27
69393;SHT31;56582;44.624;20.378;2023-07-29T04:12:29;22.86;64.13
69393;SHT31;56582;44.624;20.378;2023-07-29T04:14:54;22.87;64.04
69393;SHT31;56582;44.624;20.378;2023-07-29T04:17:19;22.87;64.03
69393;SHT31;56582;44.624;20.378;2023-07-29T04:19:45;22.91;64.15
69393;SHT31;56582;44.624;20.378;2023-07-29T04:22:10;22.95;64.21
69393;SHT31;56582;44.624;20.378;2023-07-29T04:24:37;23.00;64.26
69393;SHT31;56582;44.624;20.378;2023-07-29T04:27:03;23.01;64.26
69393;SHT31;56582;44.624;20.378;2023-07-29T04:29:28;23.07;64.04
69393;SHT31;56582;44.624;20.378;2023-07-29T04:31:54;23.10;64.15
69393;SHT31;56582;44.624;20.378;2023-07-29T04:34:19;23.15;64.23
69393;SHT31;56582;44.624;20.378;2023-07-29T04:36:46;23.14;64.25
69393;SHT31;56582;44.624;20.378;2023-07-29T04:39:12;23.18;64.19
69393;SHT31;56582;44.624;20.378;2023-07-29T04:41:37;23.24;64.30
69393;SHT31;56582;44.624;20.378;2023-07-29T04:44:03;23.25;64.42
69393;SHT31;56582;44.624;20.378;2023-07-29T04:46:28;23.29;64.46
69393;SHT31;56582;44.624;20.378;2023-07-29T04:48:54;23.32;64.89
69393;SHT31;56582;44.624;20.378;2023-07-29T04:51:19;23.33;64.79
69393;SHT31;56582;44.624;20.378;2023-07-29T04:53:45;23.35;64.60
69393;SHT31;56582;44.624;20.378;2023-07-29T04:56:10;23.37;64.55
69393;SHT31;56582;44.624;20.378;2023-07-29T04:58:36;23.38;64.57
69393;SHT31;56582;44.624;20.378;2023-07-29T05:01:02;23.39;64.68
69393;SHT31;56582;44.624;20.378;2023-07-29T05:03:28;23.38;64.69
69393;SHT31;56582;44.624;20.378;2023-07-29T05:05:53;23.43;64.61
69393;SHT31;56582;44.624;20.378;2023-07-29T05:08:21;23.43;65.36
69393;SHT31;56582;44.624;20.378;2023-07-29T05:10:50;23.49;65.38
69393;SHT31;56582;44.624;20.378;2023-07-29T05:13:16;23.51;65.44
69393;SHT31;56582;44.624;20.378;2023-07-29T05:15:42;23.53;65.84
69393;SHT31;56582;44.624;20.378;2023-07-29T05:18:07;23.55;65.92
69393;SHT31;56582;44.624;20.378;2023-07-29T05:20:32;23.49;66.66
69393;SHT31;56582;44.624;20.378;2023-07-29T05:22:58;23.49;67.25
69393;SHT31;56582;44.624;20.378;2023-07-29T05:25:23;23.51;67.48
69393;SHT31;56582;44.624;20.378;2023-07-29T05:27:49;23.55;68.03
69393;SHT31;56582;44.624;20.378;2023-07-29T05:30:14;23.61;68.97
69393;SHT31;56582;44.624;20.378;2023-07-29T05:32:39;23.65;69.06
69393;SHT31;56582;44.624;20.378;2023-07-29T05:35:05;23.67;69.33
69393;SHT31;56582;44.624;20.378;2023-07-29T05:37:31;23.67;66.92
69393;SHT31;56582;44.624;20.378;2023-07-29T05:39:56;23.74;68.30
69393;SHT31;56582;44.624;20.378;2023-07-29T05:42:22;23.86;70.44
69393;SHT31;56582;44.624;20.378;2023-07-29T05:44:47;23.90;70.26
69393;SHT31;56582;44.624;20.378;2023-07-29T05:47:13;23.92;68.74
69393;SHT31;56582;44.624;20.378;2023-07-29T05:49:38;23.90;67.72
69393;SHT31;56582;44.624;20.378;2023-07-29T05:52:04;23.94;67.67
69393;SHT31;56582;44.624;20.378;2023-07-29T05:54:29;24.00;67.87
69393;SHT31;56582;44.624;20.378;2023-07-29T05:56:54;24.09;67.37
69393;SHT31;56582;44.624;20.378;2023-07-29T05:59:20;23.83;69.07
69393;SHT31;56582;44.624;20.378;2023-07-29T06:01:45;23.37;71.58
69393;SHT31;56582;44.624;20.378;2023-07-29T06:04:11;23.61;70.53
69393;SHT31;56582;44.624;20.378;2023-07-29T06:06:36;23.58;70.35
69393;SHT31;56582;44.624;20.378;2023-07-29T06:09:02;23.53;67.95
69393;SHT31;56582;44.624;20.378;2023-07-29T06:11:27;23.35;68.13
69393;SHT31;56582;44.624;20.378;2023-07-29T06:13:52;23.53;69.83
69393;SHT31;56582;44.624;20.378;2023-07-29T06:16:18;23.66;68.73
69393;SHT31;56582;44.624;20.378;2023-07-29T06:18:43;23.69;69.04
69393;SHT31;56582;44.624;20.378;2023-07-29T06:21:09;23.76;68.40
69393;SHT31;56582;44.624;20.378;2023-07-29T06:23:37;23.89;67.94
69393;SHT31;56582;44.624;20.378;2023-07-29T06:26:03;24.14;68.45
69393;SHT31;56582;44.624;20.378;2023-07-29T06:28:28;24.31;67.27
69393;SHT31;56582;44.624;20.378;2023-07-29T06:30:54;24.27;68.55
69393;SHT31;56582;44.624;20.378;2023-07-29T06:33:19;24.13;67.48
69393;SHT31;56582;44.624;20.378;2023-07-29T06:35:44;24.20;67.91
69393;SHT31;56582;44.624;20.378;2023-07-29T06:38:10;24.28;67.36
69393;SHT31;56582;44.624;20.378;2023-07-29T06:40:35;24.34;68.72
69393;SHT31;56582;44.624;20.378;2023-07-29T06:43:01;23.92;70.69
69393;SHT31;56582;44.624;20.378;2023-07-29T06:45:26;23.76;70.14
69393;SHT31;56582;44.624;20.378;2023-07-29T06:47:52;23.12;71.33
69393;SHT31;56582;44.624;20.378;2023-07-29T06:50:17;23.25;72.15
69393;SHT31;56582;44.624;20.378;2023-07-29T06:52:43;23.51;71.16
69393;SHT31;56582;44.624;20.378;2023-07-29T06:55:08;23.21;70.77
69393;SHT31;56582;44.624;20.378;2023-07-29T06:57:34;23.35;71.71
69393;SHT31;56582;44.624;20.378;2023-07-29T06:59:59;23.38;71.73
69393;SHT31;56582;44.624;20.378;2023-07-29T07:02:25;23.74;70.98
69393;SHT31;56582;44.624;20.378;2023-07-29T07:04:50;24.04;70.57
69393;SHT31;56582;44.624;20.378;2023-07-29T07:07:16;24.30;70.71
69393;SHT31;56582;44.624;20.378;2023-07-29T07:09:41;24.51;68.59
69393;SHT31;56582;44.624;20.378;2023-07-29T07:12:07;24.75;69.89
69393;SHT31;56582;44.624;20.378;2023-07-29T07:14:33;24.90;68.91
69393;SHT31;56582;44.624;20.378;2023-07-29T07:16:58;24.92;68.53
69393;SHT31;56582;44.624;20.378;2023-07-29T07:19:24;25.10;68.85
69393;SHT31;56582;44.624;20.378;2023-07-29T07:21:49;25.31;68.38
69393;SHT31;56582;44.624;20.378;2023-07-29T07:24:15;25.47;66.86
69393;SHT31;56582;44.624;20.378;2023-07-29T07:26:40;25.68;68.04
69393;SHT31;56582;44.624;20.378;2023-07-29T07:29:05;25.85;67.06
69393;SHT31;56582;44.624;20.378;2023-07-29T07:31:33;26.08;65.36
69393;SHT31;56582;44.624;20.378;2023-07-29T07:33:59;26.21;65.98
69393;SHT31;56582;44.624;20.378;2023-07-29T07:36:26;26.12;65.80
69393;SHT31;56582;44.624;20.378;2023-07-29T07:38:51;26.18;65.78
69393;SHT31;56582;44.624;20.378;2023-07-29T07:41:16;26.28;65.80
69393;SHT31;56582;44.624;20.378;2023-07-29T07:43:42;26.43;65.11
69393;SHT31;56582;44.624;20.378;2023-07-29T07:46:07;26.53;65.44
69393;SHT31;56582;44.624;20.378;2023-07-29T07:48:33;26.65;65.22
69393;SHT31;56582;44.624;20.378;2023-07-29T07:50:58;26.91;64.79
69393;SHT31;56582;44.624;20.378;2023-07-29T07:53:24;26.90;62.91
69393;SHT31;56582;44.624;20.378;2023-07-29T07:55:53;27.00;63.75
69393;SHT31;56582;44.624;20.378;2023-07-29T07:58:19;26.95;63.68
69393;SHT31;56582;44.624;20.378;2023-07-29T08:00:44;27.00;63.97
69393;SHT31;56582;44.624;20.378;2023-07-29T08:03:10;27.05;64.39
69393;SHT31;56582;44.624;20.378;2023-07-29T08:05:35;27.16;64.11
69393;SHT31;56582;44.624;20.378;2023-07-29T08:08:01;27.08;66.17
69393;SHT31;56582;44.624;20.378;2023-07-29T08:10:26;27.10;64.34
69393;SHT31;56582;44.624;20.378;2023-07-29T08:12:52;27.07;63.92
69393;SHT31;56582;44.624;20.378;2023-07-29T08:15:17;26.64;62.68
69393;SHT31;56582;44.624;20.378;2023-07-29T08:17:43;26.73;63.33
69393;SHT31;56582;44.624;20.378;2023-07-29T08:20:08;26.76;63.20
69393;SHT31;56582;44.624;20.378;2023-07-29T08:22:34;26.79;65.70
69393;SHT31;56582;44.624;20.378;2023-07-29T08:25:00;26.97;64.88
69393;SHT31;56582;44.624;20.378;2023-07-29T08:27:25;27.18;64.17
69393;SHT31;56582;44.624;20.378;2023-07-29T08:29:51;27.31;63.25
69393;SHT31;56582;44.624;20.378;2023-07-29T08:32:16;27.48;63.32
69393;SHT31;56582;44.624;20.378;2023-07-29T08:34:41;27.55;66.41
69393;SHT31;56582;44.624;20.378;2023-07-29T08:37:07;27.85;64.73
69393;SHT31;56582;44.624;20.378;2023-07-29T08:39:32;28.01;63.56
69393;SHT31;56582;44.624;20.378;2023-07-29T08:42:03;28.10;64.08
69393;SHT31;56582;44.624;20.378;2023-07-29T08:44:40;28.10;62.24
69393;SHT31;56582;44.624;20.378;2023-07-29T08:47:06;28.14;64.40
69393;SHT31;56582;44.624;20.378;2023-07-29T08:49:32;28.40;65.25
69393;SHT31;56582;44.624;20.378;2023-07-29T08:51:58;28.54;61.21
69393;SHT31;56582;44.624;20.378;2023-07-29T08:54:24;28.58;62.74
69393;SHT31;56582;44.624;20.378;2023-07-29T08:56:50;28.36;63.93
69393;SHT31;56582;44.624;20.378;2023-07-29T08:59:16;28.33;66.22
69393;SHT31;56582;44.624;20.378;2023-07-29T09:01:42;28.33;61.84
69393;SHT31;56582;44.624;20.378;2023-07-29T09:04:08;28.22;60.98
69393;SHT31;56582;44.624;20.378;2023-07-29T09:06:35;28.47;66.58
69393;SHT31;56582;44.624;20.378;2023-07-29T09:09:01;28.59;58.54
69393;SHT31;56582;44.624;20.378;2023-07-29T09:11:28;28.52;61.07
69393;SHT31;56582;44.624;20.378;2023-07-29T09:13:53;28.78;58.79
69393;SHT31;56582;44.624;20.378;2023-07-29T09:16:22;28.79;58.58
69393;SHT31;56582;44.624;20.378;2023-07-29T09:18:49;29.00;58.84
69393;SHT31;56582;44.624;20.378;2023-07-29T09:21:23;29.17;56.26
69393;SHT31;56582;44.624;20.378;2023-07-29T09:23:50;29.20;58.13
69393;SHT31;56582;44.624;20.378;2023-07-29T09:26:22;29.37;57.34
69393;SHT31;56582;44.624;20.378;2023-07-29T09:28:55;29.55;56.94
69393;SHT31;56582;44.624;20.378;2023-07-29T09:31:22;29.75;57.22
69393;SHT31;56582;44.624;20.378;2023-07-29T09:33:48;29.67;58.48
69393;SHT31;56582;44.624;20.378;2023-07-29T09:36:14;29.75;57.76
69393;SHT31;56582;44.624;20.378;2023-07-29T09:38:39;29.78;56.71
69393;SHT31;56582;44.624;20.378;2023-07-29T09:41:05;29.82;55.48
69393;SHT31;56582;44.624;20.378;2023-07-29T09:43:32;29.74;58.34
69393;SHT31;56582;44.624;20.378;2023-07-29T09:46:02;29.22;57.31
69393;SHT31;56582;44.624;20.378;2023-07-29T09:48:35;29.22;59.04
69393;SHT31;56582;44.624;20.378;2023-07-29T09:51:21;29.58;61.90
69393;SHT31;56582;44.624;20.378;2023-07-29T09:53:47;29.91;61.42
69393;SHT31;56582;44.624;20.378;2023-07-29T09:56:16;29.91;59.76
69393;SHT31;56582;44.624;20.378;2023-07-29T09:58:44;30.11;62.80
69393;SHT31;56582;44.624;20.378;2023-07-29T10:01:11;30.39;61.14
69393;SHT31;56582;44.624;20.378;2023-07-29T10:03:37;30.56;60.51
69393;SHT31;56582;44.624;20.378;2023-07-29T10:06:04;30.70;57.59
69393;SHT31;56582;44.624;20.378;2023-07-29T10:08:30;30.71;56.30
69393;SHT31;56582;44.624;20.378;2023-07-29T10:11:06;30.47;60.03
69393;SHT31;56582;44.624;20.378;2023-07-29T10:13:33;30.28;56.82
69393;SHT31;56582;44.624;20.378;2023-07-29T10:15:59;30.33;53.48
69393;SHT31;56582;44.624;20.378;2023-07-29T10:18:28;30.42;56.76
69393;SHT31;56582;44.624;20.378;2023-07-29T10:20:56;30.25;56.10
69393;SHT31;56582;44.624;20.378;2023-07-29T10:23:24;30.04;54.67
69393;SHT31;56582;44.624;20.378;2023-07-29T10:25:57;30.09;54.16
69393;SHT31;56582;44.624;20.378;2023-07-29T10:28:29;30.23;54.73
69393;SHT31;56582;44.624;20.378;2023-07-29T10:30:56;30.23;57.07
69393;SHT31;56582;44.624;20.378;2023-07-29T10:33:22;30.44;55.23
69393;SHT31;56582;44.624;20.378;2023-07-29T10:35:47;30.25;52.52
69393;SHT31;56582;44.624;20.378;2023-07-29T10:38:14;30.33;56.63
69393;SHT31;56582;44.624;20.378;2023-07-29T10:40:50;30.50;55.18
69393;SHT31;56582;44.624;20.378;2023-07-29T10:43:27;30.56;56.39
69393;SHT31;56582;44.624;20.378;2023-07-29T10:45:57;30.66;56.49
69393;SHT31;56582;44.624;20.378;2023-07-29T10:53:52;30.70;59.62
69393;SHT31;56582;44.624;20.378;2023-07-29T10:56:29;30.71;56.98
69393;SHT31;56582;44.624;20.378;2023-07-29T10:58:56;30.91;55.72
69393;SHT31;56582;44.624;20.378;2023-07-29T11:01:32;31.00;57.13
69393;SHT31;56582;44.624;20.378;2023-07-29T11:12:41;30.98;57.31
69393;SHT31;56582;44.624;20.378;2023-07-29T11:17:43;30.86;55.54
69393;SHT31;56582;44.624;20.378;2023-07-29T11:20:10;30.95;57.87
69393;SHT31;56582;44.624;20.378;2023-07-29T11:23:01;31.07;51.65
69393;SHT31;56582;44.624;20.378;2023-07-29T11:25:28;31.06;54.31
69393;SHT31;56582;44.624;20.378;2023-07-29T11:27:55;31.14;51.04
69393;SHT31;56582;44.624;20.378;2023-07-29T11:30:21;30.83;50.36
69393;SHT31;56582;44.624;20.378;2023-07-29T11:32:48;31.00;54.50
69393;SHT31;56582;44.624;20.378;2023-07-29T11:35:33;31.25;54.44
69393;SHT31;56582;44.624;20.378;2023-07-29T11:37:59;31.34;53.96
69393;SHT31;56582;44.624;20.378;2023-07-29T11:40:24;31.37;52.74
69393;SHT31;56582;44.624;20.378;2023-07-29T11:42:51;31.52;52.67
69393;SHT31;56582;44.624;20.378;2023-07-29T11:45:19;31.48;50.17
69393;SHT31;56582;44.624;20.378;2023-07-29T11:47:45;31.42;54.54
69393;SHT31;56582;44.624;20.378;2023-07-29T11:50:12;31.42;52.31
69393;SHT31;56582;44.624;20.378;2023-07-29T11:52:43;31.59;52.58
69393;SHT31;56582;44.624;20.378;2023-07-29T11:55:09;31.65;53.33
69393;SHT31;56582;44.624;20.378;2023-07-29T11:57:36;31.70;51.89
69393;SHT31;56582;44.624;20.378;2023-07-29T12:00:03;31.24;50.28
69393;SHT31;56582;44.624;20.378;2023-07-29T12:02:32;31.46;54.66
69393;SHT31;56582;44.624;20.378;2023-07-29T12:04:58;31.67;56.60
69393;SHT31;56582;44.624;20.378;2023-07-29T12:07:23;31.70;52.22
69393;SHT31;56582;44.624;20.378;2023-07-29T12:09:50;31.62;50.27
69393;SHT31;56582;44.624;20.378;2023-07-29T12:12:15;31.63;53.25
69393;SHT31;56582;44.624;20.378;2023-07-29T12:14:45;31.87;51.86
69393;SHT31;56582;44.624;20.378;2023-07-29T12:17:14;31.96;53.78
69393;SHT31;56582;44.624;20.378;2023-07-29T12:19:40;31.83;48.47
69393;SHT31;56582;44.624;20.378;2023-07-29T12:22:08;31.77;50.95
69393;SHT31;56582;44.624;20.378;2023-07-29T12:24:39;31.82;49.99
69393;SHT31;56582;44.624;20.378;2023-07-29T12:27:13;31.72;51.27
69393;SHT31;56582;44.624;20.378;2023-07-29T12:29:40;31.87;51.49
69393;SHT31;56582;44.624;20.378;2023-07-29T12:32:07;31.90;52.09
69393;SHT31;56582;44.624;20.378;2023-07-29T12:34:32;31.90;47.67
69393;SHT31;56582;44.624;20.378;2023-07-29T12:36:59;31.98;48.86
69393;SHT31;56582;44.624;20.378;2023-07-29T12:39:27;31.83;50.58
69393;SHT31;56582;44.624;20.378;2023-07-29T12:41:57;31.96;54.42
69393;SHT31;56582;44.624;20.378;2023-07-29T12:44:33;31.94;50.51
69393;SHT31;56582;44.624;20.378;2023-07-29T12:47:04;32.03;48.13
69393;SHT31;56582;44.624;20.378;2023-07-29T12:49:30;32.07;49.98
69393;SHT31;56582;44.624;20.378;2023-07-29T12:51:56;32.20;48.61
69393;SHT31;56582;44.624;20.378;2023-07-29T12:54:22;32.30;48.75
69393;SHT31;56582;44.624;20.378;2023-07-29T12:56:47;32.20;48.37
69393;SHT31;56582;44.624;20.378;2023-07-29T12:59:13;32.10;44.95
69393;SHT31;56582;44.624;20.378;2023-07-29T13:01:38;32.20;47.82
69393;SHT31;56582;44.624;20.378;2023-07-29T13:04:04;32.37;47.71
69393;SHT31;56582;44.624;20.378;2023-07-29T13:06:30;32.27;48.84
69393;SHT31;56582;44.624;20.378;2023-07-29T13:08:56;32.00;46.59
69393;SHT31;56582;44.624;20.378;2023-07-29T13:11:22;32.19;47.31
69393;SHT31;56582;44.624;20.378;2023-07-29T13:13:47;32.25;51.20
69393;SHT31;56582;44.624;20.378;2023-07-29T13:16:13;32.06;52.47
69393;SHT31;56582;44.624;20.378;2023-07-29T13:18:39;31.97;51.42
69393;SHT31;56582;44.624;20.378;2023-07-29T13:21:05;31.94;49.14
69393;SHT31;56582;44.624;20.378;2023-07-29T13:23:30;32.13;49.30
69393;SHT31;56582;44.624;20.378;2023-07-29T13:25:57;32.28;50.97
69393;SHT31;56582;44.624;20.378;2023-07-29T13:28:22;32.16;49.61
69393;SHT31;56582;44.624;20.378;2023-07-29T13:30:48;32.41;49.57
69393;SHT31;56582;44.624;20.378;2023-07-29T13:33:14;32.55;49.56
69393;SHT31;56582;44.624;20.378;2023-07-29T13:35:39;32.54;49.51
69393;SHT31;56582;44.624;20.378;2023-07-29T13:38:05;32.30;48.10
69393;SHT31;56582;44.624;20.378;2023-07-29T13:40:31;31.96;46.48
69393;SHT31;56582;44.624;20.378;2023-07-29T13:42:57;32.19;48.92
69393;SHT31;56582;44.624;20.378;2023-07-29T13:45:22;32.27;54.10
69393;SHT31;56582;44.624;20.378;2023-07-29T13:47:48;32.16;51.25
69393;SHT31;56582;44.624;20.378;2023-07-29T13:50:14;32.13;48.66
69393;SHT31;56582;44.624;20.378;2023-07-29T13:52:39;32.30;49.54
69393;SHT31;56582;44.624;20.378;2023-07-29T13:55:05;32.34;50.23
69393;SHT31;56582;44.624;20.378;2023-07-29T13:57:31;32.24;49.37
69393;SHT31;56582;44.624;20.378;2023-07-29T13:59:57;31.97;49.25
69393;SHT31;56582;44.624;20.378;2023-07-29T14:02:22;31.94;48.34
69393;SHT31;56582;44.624;20.378;2023-07-29T14:04:48;31.85;49.88
69393;SHT31;56582;44.624;20.378;2023-07-29T14:07:13;31.80;51.53
69393;SHT31;56582;44.624;20.378;2023-07-29T14:09:39;31.82;50.29
69393;SHT31;56582;44.624;20.378;2023-07-29T14:12:04;31.96;52.53
69393;SHT31;56582;44.624;20.378;2023-07-29T14:14:31;31.97;52.71
69393;SHT31;56582;44.624;20.378;2023-07-29T14:16:56;32.19;51.80
69393;SHT31;56582;44.624;20.378;2023-07-29T14:19:22;32.14;52.33
69393;SHT31;56582;44.624;20.378;2023-07-29T14:21:48;32.20;48.50
69393;SHT31;56582;44.624;20.378;2023-07-29T14:24:13;32.28;51.31
69393;SHT31;56582;44.624;20.378;2023-07-29T14:26:40;32.25;49.49
69393;SHT31;56582;44.624;20.378;2023-07-29T14:29:06;32.25;50.56
69393;SHT31;56582;44.624;20.378;2023-07-29T14:31:31;32.02;49.58
69393;SHT31;56582;44.624;20.378;2023-07-29T14:33:57;32.19;51.39
69393;SHT31;56582;44.624;20.378;2023-07-29T14:36:24;32.10;50.56
69393;SHT31;56582;44.624;20.378;2023-07-29T14:38:50;31.97;54.38
69393;SHT31;56582;44.624;20.378;2023-07-29T14:41:15;31.45;50.98
69393;SHT31;56582;44.624;20.378;2023-07-29T14:43:40;31.59;51.87
69393;SHT31;56582;44.624;20.378;2023-07-29T14:46:06;31.52;52.19
69393;SHT31;56582;44.624;20.378;2023-07-29T14:48:31;31.62;51.58
69393;SHT31;56582;44.624;20.378;2023-07-29T14:50:57;31.76;51.23
69393;SHT31;56582;44.624;20.378;2023-07-29T14:53:22;31.67;48.78
69393;SHT31;56582;44.624;20.378;2023-07-29T14:55:48;31.52;48.06
69393;SHT31;56582;44.624;20.378;2023-07-29T14:58:14;31.53;51.43
69393;SHT31;56582;44.624;20.378;2023-07-29T15:00:40;31.67;52.45
69393;SHT31;56582;44.624;20.378;2023-07-29T15:03:05;31.80;51.73
69393;SHT31;56582;44.624;20.378;2023-07-29T15:05:32;31.75;50.98
69393;SHT31;56582;44.624;20.378;2023-07-29T15:07:58;31.75;50.90
69393;SHT31;56582;44.624;20.378;2023-07-29T15:10:24;31.70;48.42
69393;SHT31;56582;44.624;20.378;2023-07-29T15:12:49;31.75;52.96
69393;SHT31;56582;44.624;20.378;2023-07-29T15:15:15;31.72;51.47
69393;SHT31;56582;44.624;20.378;2023-07-29T15:17:40;31.65;50.10
69393;SHT31;56582;44.624;20.378;2023-07-29T15:20:06;31.50;49.63
69393;SHT31;56582;44.624;20.378;2023-07-29T15:22:31;31.66;51.52
69393;SHT31;56582;44.624;20.378;2023-07-29T15:24:58;31.45;48.66
69393;SHT31;56582;44.624;20.378;2023-07-29T15:27:26;31.34;49.89
69393;SHT31;56582;44.624;20.378;2023-07-29T15:29:51;31.22;52.12
69393;SHT31;56582;44.624;20.378;2023-07-29T15:32:17;31.29;50.41
69393;SHT31;56582;44.624;20.378;2023-07-29T15:34:42;31.17;51.62
69393;SHT31;56582;44.624;20.378;2023-07-29T15:37:08;31.15;49.54